Time;durP1;ratioP1;P1;durP2;ratioP2;P2;SDS_P1;SDS_P2;PMS_P1;PMS_P2;Temp;Humidity;BMP_temperature;BMP_pressure;BME280_temperature;BME280_humidity;BME280_pressure;Samples;Min_cycle;Max_cycle;Signal;HPM_P1;HPM_P2
2022/11/02 00:01:42;;;;;;;5.43;0.82;;;11.80;28.80;;;;;;4992059;28;20030;-79
2022/11/02 00:04:08;;;;;;;4.88;1.08;;;11.80;34.10;;;;;;4996350;28;20488;-79
2022/11/02 00:06:34;;;;;;;7.03;1.35;;;11.80;26.30;;;;;;4980520;28;20031;-79
2022/11/02 00:08:59;;;;;;;5.20;1.00;;;11.70;38.90;;;;;;4976645;28;20401;-79
2022/11/02 00:11:25;;;;;;;5.07;1.13;;;11.80;36.90;;;;;;4976712;28;20682;-79
2022/11/02 00:13:51;;;;;;;7.38;1.15;;;11.80;27.10;;;;;;4976745;28;20023;-78
2022/11/02 00:16:19;;;;;;;5.38;1.38;;;11.70;39.40;;;;;;4976635;28;20031;-79
2022/11/02 00:18:48;;;;;;;7.93;1.10;;;11.80;30.40;;;;;;4976695;28;20033;-79
2022/11/02 00:21:16;;;;;;;4.28;1.35;;;11.70;27.30;;;;;;4976463;28;20031;-79
2022/11/02 00:23:42;;;;;;;8.30;1.23;;;11.70;22.20;;;;;;4976361;28;20466;-79
2022/11/02 00:26:08;;;;;;;5.38;1.08;;;11.70;23.20;;;;;;4976336;28;20037;-79
2022/11/02 00:28:34;;;;;;;7.38;1.10;;;11.70;25.00;;;;;;4975891;28;20468;-79
2022/11/02 00:30:59;;;;;;;5.60;1.52;;;11.60;23.60;;;;;;4973427;28;20015;-80
2022/11/02 00:33:25;;;;;;;4.57;1.13;;;11.60;33.40;;;;;;4956918;28;20041;-78
2022/11/02 00:35:53;;;;;;;6.20;1.25;;;11.40;60.40;;;;;;4956795;28;20134;-78
2022/11/02 00:38:18;;;;;;;5.32;1.08;;;11.30;85.00;;;;;;4957169;28;20023;-78
2022/11/02 00:40:44;;;;;;;5.25;1.75;;;11.20;99.90;;;;;;4956959;28;20027;-78
2022/11/02 00:43:09;;;;;;;5.88;1.42;;;11.10;99.90;;;;;;4956823;28;20024;-78
2022/11/02 00:45:35;;;;;;;3.85;1.25;;;11.00;99.90;;;;;;4957280;28;20458;-78
2022/11/02 00:48:00;;;;;;;2.90;0.90;;;10.90;99.90;;;;;;4956568;28;20058;-78
2022/11/02 00:50:26;;;;;;;7.88;0.90;;;10.80;99.90;;;;;;4989504;28;20482;-78
2022/11/02 00:52:51;;;;;;;6.85;1.02;;;10.70;99.90;;;;;;4995294;28;20049;-78
2022/11/02 00:55:17;;;;;;;3.75;0.90;;;10.70;99.90;;;;;;4995311;28;20030;-79
2022/11/02 00:57:43;;;;;;;8.18;1.20;;;10.70;99.90;;;;;;4985794;28;20038;-78
2022/11/02 01:00:10;;;;;;;6.88;1.10;;;10.80;94.90;;;;;;4991506;28;20173;-79
2022/11/02 01:02:36;;;;;;;3.60;0.75;;;10.80;92.40;;;;;;4995143;28;20030;-79
2022/11/02 01:05:03;;;;;;;4.72;1.02;;;10.90;91.10;;;;;;4994927;28;20029;-79
2022/11/02 01:07:29;;;;;;;8.23;1.20;;;11.00;81.80;;;;;;4994949;28;20362;-79
2022/11/02 01:09:54;;;;;;;5.57;0.93;;;11.10;62.00;;;;;;4994965;28;20046;-79
2022/11/02 01:12:20;;;;;;;5.13;1.02;;;11.10;52.40;;;;;;4994893;28;20022;-79
2022/11/02 01:14:47;;;;;;;8.13;1.05;;;11.20;28.10;;;;;;4994963;28;20022;-79
2022/11/02 01:17:13;;;;;;;5.90;0.90;;;11.30;25.30;;;;;;4984759;28;20043;-78
2022/11/02 01:19:39;;;;;;;6.63;1.02;;;11.30;30.00;;;;;;4975951;28;20018;-78
2022/11/02 01:22:05;;;;;;;6.22;1.10;;;11.20;30.70;;;;;;4975078;28;20113;-79
2022/11/02 01:24:30;;;;;;;3.60;0.65;;;11.20;28.60;;;;;;4975042;28;20027;-78
2022/11/02 01:26:56;;;;;;;6.63;1.15;;;11.10;31.00;;;;;;4975232;28;20066;-79
2022/11/02 01:29:27;;;;;;;4.00;0.70;;;11.00;33.20;;;;;;4971671;28;20387;-79
2022/11/02 01:34:34;;;;;;;4.55;0.73;;;10.90;36.70;;;;;;5021686;28;20057;-77
2022/11/02 01:37:00;;;;;;;3.30;0.60;;;10.70;44.30;;;;;;5013596;28;20033;-77
2022/11/02 01:39:30;;;;;;;3.50;0.50;;;10.60;42.20;;;;;;5015115;28;20026;-77
2022/11/02 01:45:18;;;;;;;3.28;0.52;;;10.60;50.30;;;;;;5014847;28;20041;-77
2022/11/02 01:47:47;;;;;;;3.35;0.63;;;10.50;49.90;;;;;;5014699;28;20037;-77
2022/11/02 01:50:22;;;;;;;3.80;0.70;;;10.40;41.30;;;;;;5015018;28;20022;-77
2022/11/02 01:52:48;;;;;;;2.10;0.45;;;10.40;41.30;;;;;;5014961;28;20030;-77
2022/11/02 01:55:21;;;;;;;6.05;0.57;;;10.40;42.60;;;;;;5014394;28;20033;-77
2022/11/02 01:57:53;;;;;;;2.70;0.47;;;10.40;44.50;;;;;;5014553;28;20026;-77
2022/11/02 02:00:19;;;;;;;4.40;0.65;;;10.40;39.10;;;;;;5014940;28;20480;-77
2022/11/02 02:03:23;;;;;;;2.58;0.52;;;10.40;39.70;;;;;;5014423;28;20025;-77
2022/11/02 02:08:31;;;;;;;3.42;0.68;;;10.30;49.20;;;;;;3496061;23;21290;-76
2022/11/02 02:10:57;;;;;;;3.58;0.70;;;10.30;45.60;;;;;;5013383;28;20606;-75
2022/11/02 02:13:25;;;;;;;6.97;0.93;;;10.20;52.00;;;;;;5013993;28;20103;-75
2022/11/02 02:16:12;;;;;;;3.72;0.80;;;10.20;61.70;;;;;;5014481;28;20014;-75
2022/11/02 02:18:51;;;;;;;3.58;0.95;;;10.10;72.60;;;;;;4994319;28;20026;-75
2022/11/02 02:21:48;;;;;;;1.88;0.90;;;10.10;82.10;;;;;;4994310;28;20027;-75
2022/11/02 02:24:43;;;;;;;2.22;0.70;;;10.00;86.60;;;;;;4994200;28;20046;-75
2022/11/02 02:27:17;;;;;;;5.55;0.90;;;9.80;98.10;;;;;;4994547;28;20061;-75
2022/11/02 02:30:00;;;;;;;4.95;1.65;;;9.80;99.90;;;;;;5012311;28;20038;-75
2022/11/02 02:32:48;;;;;;;2.63;0.95;;;9.80;99.90;;;;;;5013904;28;20081;-76
2022/11/02 02:35:47;;;;;;;3.35;0.90;;;9.80;99.90;;;;;;5013917;28;20050;-76
2022/11/02 02:38:19;;;;;;;2.03;0.65;;;10.10;97.20;;;;;;5013781;28;20388;-76
2022/11/02 02:40:55;;;;;;;2.88;0.63;;;10.20;91.30;;;;;;5013769;28;20041;-76
2022/11/02 02:43:31;;;;;;;5.10;0.68;;;10.30;73.40;;;;;;5013702;28;20025;-76
2022/11/02 02:46:07;;;;;;;1.80;0.60;;;10.40;54.80;;;;;;5013849;28;20117;-76
2022/11/02 02:48:34;;;;;;;7.10;0.82;;;10.40;47.10;;;;;;5013465;28;20026;-76
2022/11/02 02:51:10;;;;;;;5.32;0.93;;;10.50;40.40;;;;;;5013108;28;20369;-76
2022/11/02 02:53:58;;;;;;;6.97;0.85;;;10.40;31.30;;;;;;5013566;28;20049;-76
2022/11/02 02:56:28;;;;;;;3.92;0.40;;;10.30;38.30;;;;;;5013429;28;20040;-76
2022/11/02 02:59:11;;;;;;;4.60;0.80;;;10.30;47.20;;;;;;5013687;28;20034;-76
2022/11/02 03:01:41;;;;;;;3.85;0.73;;;10.20;51.30;;;;;;5013471;28;20041;-76
2022/11/02 03:04:11;;;;;;;4.68;1.00;;;10.10;55.50;;;;;;5013521;28;20020;-76
2022/11/02 03:06:37;;;;;;;4.65;0.70;;;10.00;56.70;;;;;;5013744;28;20018;-76
2022/11/02 03:09:35;;;;;;;6.60;0.77;;;9.90;62.30;;;;;;5013042;28;20078;-76
2022/11/02 03:12:22;;;;;;;3.80;0.70;;;9.80;66.50;;;;;;4993657;28;20026;-76
2022/11/02 03:14:57;;;;;;;7.28;0.98;;;9.70;74.40;;;;;;5011115;28;20025;-76
2022/11/02 03:17:34;;;;;;;4.82;1.05;;;9.70;80.40;;;;;;5013405;28;20040;-76
2022/11/02 03:20:24;;;;;;;6.57;0.82;;;9.60;90.20;;;;;;5013364;28;20049;-76
2022/11/02 03:23:05;;;;;;;4.18;1.17;;;9.60;91.50;;;;;;5000278;28;20038;-76
2022/11/02 03:25:52;;;;;;;4.65;0.60;;;9.60;96.40;;;;;;5013364;28;20156;-75
2022/11/02 03:28:37;;;;;;;7.57;1.38;;;9.90;77.30;;;;;;4993558;28;20022;-76
2022/11/02 03:31:26;;;;;;;13.98;2.65;;;10.00;78.20;;;;;;4997242;28;20033;-76
2022/11/02 03:34:01;;;;;;;5.95;0.70;;;9.90;86.30;;;;;;5013197;28;20049;-76
2022/11/02 03:36:48;;;;;;;6.50;0.70;;;9.90;91.30;;;;;;5013371;28;20033;-76
2022/11/02 03:39:17;;;;;;;5.10;0.47;;;9.90;98.20;;;;;;5013385;28;20025;-76
2022/11/02 03:41:45;;;;;;;4.95;0.95;;;10.00;97.30;;;;;;5013259;28;20398;-76
2022/11/02 03:44:14;;;;;;;5.63;0.80;;;10.10;96.30;;;;;;5013292;28;20148;-76
2022/11/02 03:46:42;;;;;;;8.48;1.15;;;10.30;96.00;;;;;;5013405;28;20030;-76
2022/11/02 03:49:13;;;;;;;8.32;0.93;;;10.30;99.90;;;;;;5013167;28;20034;-76
2022/11/02 03:51:42;;;;;;;7.07;0.80;;;10.40;99.90;;;;;;5000028;28;20499;-76
2022/11/02 03:54:22;;;;;;;5.10;1.08;;;10.20;99.90;;;;;;5013074;28;20034;-77
2022/11/02 03:56:52;;;;;;;7.03;0.98;;;10.20;99.90;;;;;;5012991;28;20022;-76
2022/11/02 03:59:17;;;;;;;7.50;1.00;;;10.30;99.90;;;;;;5013134;28;20038;-76
2022/11/02 04:01:49;;;;;;;7.85;1.85;;;10.40;99.90;;;;;;5012921;28;20030;-76
2022/11/02 04:04:15;;;;;;;5.53;0.90;;;10.40;99.90;;;;;;5014864;28;20045;-76
2022/11/02 04:06:43;;;;;;;4.93;0.70;;;10.30;99.90;;;;;;5016403;28;20507;-76
2022/11/02 04:09:09;;;;;;;4.07;0.80;;;10.30;99.90;;;;;;5016049;28;20045;-76
2022/11/02 04:14:37;;;;;;;9.68;1.83;;;10.30;99.90;;;;;;5016412;28;20037;-76
2022/11/02 04:19:53;;;;;;;8.02;0.98;;;10.40;99.90;;;;;;5016427;28;20033;-76
2022/11/02 04:28:07;;;;;;;7.82;1.40;;;10.30;99.90;;;;;;4991691;28;20042;-76
2022/11/02 04:30:32;;;;;;;8.55;1.45;;;10.40;1.00;;;;;;4995838;28;20484;-76
2022/11/02 04:33:32;;;;;;;6.70;0.95;;;10.40;1.00;;;;;;5015759;28;20022;-76
2022/11/02 04:36:00;;;;;;;3.38;0.70;;;10.30;1.00;;;;;;5015950;28;20029;-76
2022/11/02 04:38:40;;;;;;;7.88;0.90;;;10.30;1.00;;;;;;5015983;28;20092;-76
2022/11/02 04:43:56;;;;;;;6.63;1.33;;;10.10;1.00;;;;;;5016042;28;20032;-76
2022/11/02 04:46:24;;;;;;;10.48;1.17;;;10.00;99.90;;;;;;5015716;28;20108;-76
2022/11/02 04:48:50;;;;;;;6.50;1.20;;;10.00;1.00;;;;;;5015773;28;20033;-76
2022/11/02 04:51:16;;;;;;;11.88;1.65;;;10.00;1.00;;;;;;5015495;28;20049;-76
2022/11/02 04:53:41;;;;;;;7.40;1.23;;;10.10;1.00;;;;;;5015771;28;20361;-76
2022/11/02 04:56:07;;;;;;;7.57;1.65;;;10.10;1.00;;;;;;5015572;28;20026;-76
2022/11/02 04:58:33;;;;;;;9.48;1.27;;;10.00;1.00;;;;;;5015476;28;20032;-76
2022/11/02 05:01:07;;;;;;;5.15;0.75;;;10.10;1.00;;;;;;5015586;28;20030;-76
2022/11/02 05:03:34;;;;;;;5.70;1.35;;;10.10;1.00;;;;;;5015565;28;20026;-76
2022/11/02 05:06:00;;;;;;;6.38;1.17;;;10.20;1.00;;;;;;5015337;28;20025;-76
2022/11/02 05:08:26;;;;;;;5.28;1.30;;;10.30;1.00;;;;;;5015349;28;20034;-76
2022/11/02 05:10:56;;;;;;;7.90;1.48;;;10.30;1.00;;;;;;4995576;28;20041;-76
2022/11/02 05:13:25;;;;;;;10.52;1.30;;;10.40;1.00;;;;;;4995531;28;20030;-76
2022/11/02 05:15:54;;;;;;;8.83;1.00;;;10.40;1.00;;;;;;4995485;28;20076;-76
2022/11/02 05:18:20;;;;;;;9.60;1.42;;;10.50;99.90;;;;;;4995574;28;20035;-76
2022/11/02 05:20:57;;;;;;;13.02;1.48;;;10.40;99.90;;;;;;4995521;28;20029;-76
2022/11/02 05:23:23;;;;;;;13.32;1.75;;;10.50;99.90;;;;;;4988023;28;20022;-76
2022/11/02 05:26:00;;;;;;;10.10;1.52;;;10.60;99.90;;;;;;4975990;28;20441;-76
2022/11/02 05:28:27;;;;;;;5.05;1.30;;;10.50;99.90;;;;;;4975816;28;20477;-76
2022/11/02 05:30:53;;;;;;;7.85;1.30;;;10.60;99.90;;;;;;4975821;28;20045;-76
2022/11/02 05:33:19;;;;;;;9.32;1.30;;;10.50;99.90;;;;;;4975876;28;20138;-76
2022/11/02 05:36:23;;;;;;;11.45;1.70;;;10.60;99.90;;;;;;4975518;28;20508;-77
2022/11/02 05:38:54;;;;;;;13.55;1.23;;;10.70;99.90;;;;;;4975861;28;20085;-77
2022/11/02 05:41:26;;;;;;;7.53;1.10;;;10.70;99.90;;;;;;4975527;28;20023;-76
2022/11/02 05:43:52;;;;;;;6.20;1.50;;;10.70;99.90;;;;;;4975686;28;20035;-76
2022/11/02 05:46:17;;;;;;;6.03;1.00;;;10.70;99.90;;;;;;4975570;28;20027;-76
2022/11/02 05:48:43;;;;;;;12.52;2.20;;;10.60;99.90;;;;;;4975406;28;20608;-76
2022/11/02 05:51:09;;;;;;;9.18;1.42;;;10.60;99.90;;;;;;4979260;28;20084;-76
2022/11/02 05:53:37;;;;;;;6.70;1.00;;;10.80;99.90;;;;;;4994807;28;20058;-76
2022/11/02 05:56:05;;;;;;;5.03;1.02;;;10.60;99.90;;;;;;4984237;28;20109;-76
2022/11/02 05:58:31;;;;;;;6.30;0.98;;;10.70;99.90;;;;;;4984823;28;20070;-76
2022/11/02 06:01:04;;;;;;;8.40;1.25;;;10.70;99.90;;;;;;4985517;28;20019;-76
2022/11/02 06:03:30;;;;;;;11.27;1.30;;;10.70;99.90;;;;;;4982519;28;20669;-76
2022/11/02 06:06:02;;;;;;;7.32;0.90;;;10.80;99.90;;;;;;4981900;28;20030;-76
2022/11/02 06:08:30;;;;;;;4.43;1.05;;;10.70;99.90;;;;;;4980608;28;20069;-76
2022/11/02 06:10:56;;;;;;;10.18;1.15;;;10.60;99.90;;;;;;5007645;28;20136;-76
2022/11/02 06:13:21;;;;;;;6.63;1.45;;;10.50;99.90;;;;;;5000478;28;20015;-76
2022/11/02 06:15:47;;;;;;;7.35;1.20;;;10.60;99.90;;;;;;5013190;28;20160;-76
2022/11/02 06:18:13;;;;;;;4.80;0.80;;;10.50;99.90;;;;;;5002053;28;20468;-76
2022/11/02 06:20:38;;;;;;;6.88;0.95;;;10.50;78.80;;;;;;4996429;28;20026;-76
2022/11/02 06:23:04;;;;;;;6.43;1.58;;;10.70;72.50;;;;;;4993980;28;20028;-76
2022/11/02 06:25:29;;;;;;;6.50;1.02;;;10.80;42.10;;;;;;4994123;28;20033;-76
2022/11/02 06:27:56;;;;;;;8.73;1.00;;;10.60;44.80;;;;;;4993589;28;20026;-76
2022/11/02 06:30:25;;;;;;;3.75;0.70;;;10.80;1.00;;;;;;4994287;28;20033;-76
2022/11/02 06:32:52;;;;;;;2.40;0.50;;;10.60;11.90;;;;;;4995755;28;20022;-76
2022/11/02 06:35:20;;;;;;;3.40;0.88;;;10.40;33.50;;;;;;5013764;28;20113;-76
2022/11/02 06:37:46;;;;;;;5.60;1.00;;;10.20;40.90;;;;;;5013931;28;20711;-77
2022/11/02 06:40:19;;;;;;;5.70;0.80;;;10.10;41.40;;;;;;5013510;28;20032;-77
2022/11/02 06:42:45;;;;;;;9.80;1.45;;;10.00;53.30;;;;;;5013745;28;20076;-76
2022/11/02 06:45:10;;;;;;;8.85;1.25;;;10.10;74.40;;;;;;5013949;28;20401;-77
2022/11/02 06:47:37;;;;;;;6.05;1.08;;;10.00;94.60;;;;;;5013801;28;20030;-76
2022/11/02 06:50:03;;;;;;;8.18;1.00;;;10.10;90.20;;;;;;5013959;28;20076;-76
2022/11/02 06:52:29;;;;;;;7.80;1.40;;;10.30;69.80;;;;;;5013074;28;20104;-75
2022/11/02 06:54:55;;;;;;;4.13;1.02;;;10.50;52.70;;;;;;5000733;28;20452;-75
2022/11/02 06:57:22;;;;;;;6.20;0.82;;;10.40;24.80;;;;;;4992280;28;20025;-75
2022/11/02 06:59:48;;;;;;;2.95;2.15;;;10.40;1.00;;;;;;4994528;28;20076;-77
2022/11/02 07:02:13;;;;;;;2.15;0.60;;;10.40;9.90;;;;;;5004077;28;20098;-77
2022/11/02 07:04:39;;;;;;;4.07;1.63;;;10.30;20.30;;;;;;4999202;28;20600;-77
2022/11/02 07:07:05;;;;;;;7.22;2.03;;;10.20;12.40;;;;;;4993744;28;20031;-78
2022/11/02 07:09:31;;;;;;;5.28;1.00;;;10.10;21.90;;;;;;4993406;28;20058;-77
2022/11/02 07:11:56;;;;;;;6.05;1.55;;;10.10;28.60;;;;;;4994316;28;20019;-77
2022/11/02 07:14:22;;;;;;;3.55;0.90;;;10.20;39.90;;;;;;4994167;28;20029;-78
2022/11/02 07:16:47;;;;;;;7.78;0.85;;;10.30;27.50;;;;;;5007525;28;20136;-78
2022/11/02 07:19:13;;;;;;;6.20;0.90;;;10.30;36.70;;;;;;5013375;28;20026;-77
2022/11/02 07:21:38;;;;;;;6.28;1.05;;;10.30;27.30;;;;;;5007578;28;20364;-77
2022/11/02 07:24:04;;;;;;;5.80;1.30;;;10.20;41.50;;;;;;4993746;28;20473;-77
2022/11/02 07:26:30;;;;;;;14.52;3.00;;;10.10;60.50;;;;;;4999001;28;20022;-77
2022/11/02 07:28:56;;;;;;;9.00;1.42;;;10.40;57.50;;;;;;4993537;28;20041;-77
2022/11/02 07:31:21;;;;;;;4.60;1.67;;;11.00;29.30;;;;;;4999666;28;20022;-77
2022/11/02 07:33:47;;;;;;;5.68;0.88;;;11.20;1.00;;;;;;4999467;28;20018;-77
2022/11/02 07:36:12;;;;;;;6.70;1.15;;;11.40;1.00;;;;;;4994266;28;20025;-77
2022/11/02 07:38:38;;;;;;;2.88;0.80;;;11.60;1.00;;;;;;4996428;28;20432;-77
2022/11/02 07:41:37;;;;;;;5.18;0.90;;;11.30;1.00;;;;;;4999848;28;20030;-77
2022/11/02 07:44:03;;;;;;;5.35;1.17;;;11.10;1.00;;;;;;5014578;28;20026;-77
2022/11/02 07:46:29;;;;;;;8.23;2.08;;;10.90;1.00;;;;;;5006340;28;20037;-77
2022/11/02 07:48:55;;;;;;;8.48;1.60;;;10.80;1.00;;;;;;5001080;28;20046;-77
2022/11/02 07:51:21;;;;;;;7.15;1.45;;;10.60;1.00;;;;;;5004844;28;20018;-77
2022/11/02 07:53:47;;;;;;;5.28;1.25;;;10.70;1.00;;;;;;5012806;28;20080;-77
2022/11/02 07:56:12;;;;;;;10.05;2.10;;;10.60;1.00;;;;;;5002526;28;20473;-77
2022/11/02 07:58:38;;;;;;;5.85;1.48;;;10.80;1.00;;;;;;4996980;28;20113;-76
2022/11/02 08:01:04;;;;;;;7.95;1.58;;;11.00;1.00;;;;;;5004902;28;20022;-77
2022/11/02 08:03:29;;;;;;;8.80;1.77;;;11.60;1.00;;;;;;5001117;28;20022;-77
2022/11/02 08:06:06;;;;;;;5.80;1.55;;;11.10;1.00;;;;;;5016270;28;20532;-77
2022/11/02 08:08:32;;;;;;;9.45;1.38;;;10.90;1.00;;;;;;4999247;28;20038;-77
2022/11/02 08:11:08;;;;;;;6.75;1.50;;;10.80;1.00;;;;;;5008538;28;21667;-77
2022/11/02 08:13:35;;;;;;;10.18;1.85;;;12.40;1.00;;;;;;5000301;28;20026;-77
2022/11/02 08:16:01;;;;;;;6.03;1.27;;;14.70;1.00;;;;;;5011653;28;20068;-77
2022/11/02 08:18:28;;;;;;;7.07;1.23;;;17.80;1.00;;;;;;5007735;28;20062;-77
2022/11/02 08:20:55;;;;;;;6.53;1.33;;;15.20;1.00;;;;;;4996091;28;20681;-77
2022/11/02 08:23:22;;;;;;;7.72;1.30;;;15.90;1.00;;;;;;5006721;28;20029;-77
2022/11/02 08:25:49;;;;;;;7.72;1.27;;;19.90;99.90;;;;;;4994910;28;20019;-77
2022/11/02 08:28:18;;;;;;;6.75;1.25;;;20.80;99.90;;;;;;4996072;28;20168;-77
2022/11/02 08:30:44;;;;;;;7.78;1.58;;;22.40;99.90;;;;;;4996206;28;20387;-77
2022/11/02 08:33:12;;;;;;;11.02;1.45;;;23.10;99.90;;;;;;4997381;28;20022;-77
2022/11/02 08:35:38;;;;;;;7.15;2.08;;;24.70;99.90;;;;;;4999796;28;20029;-77
2022/11/02 08:38:05;;;;;;;6.32;1.10;;;24.20;99.90;;;;;;5002758;28;20876;-77
2022/11/02 08:40:31;;;;;;;8.00;1.75;;;24.60;99.90;;;;;;5014115;28;20018;-77
2022/11/02 08:42:58;;;;;;;8.38;1.15;;;24.00;99.90;;;;;;4998472;28;20030;-77
2022/11/02 08:45:24;;;;;;;9.70;1.30;;;20.90;99.90;;;;;;5015565;28;20018;-77
2022/11/02 08:47:50;;;;;;;6.78;1.30;;;18.70;99.90;;;;;;5015426;28;20030;-77
2022/11/02 08:50:15;;;;;;;6.32;1.35;;;17.30;99.90;;;;;;5013112;28;20025;-77
2022/11/02 08:52:41;;;;;;;6.28;1.40;;;16.30;99.90;;;;;;4995708;28;20477;-77
2022/11/02 08:55:07;;;;;;;7.45;1.25;;;15.70;99.90;;;;;;4995739;28;20057;-77
2022/11/02 08:57:32;;;;;;;9.95;1.70;;;15.20;99.90;;;;;;4995894;28;20027;-77
2022/11/02 08:59:58;;;;;;;6.18;1.70;;;15.10;99.90;;;;;;5006613;28;20093;-77
2022/11/02 09:02:23;;;;;;;5.35;1.85;;;14.90;99.90;;;;;;4995752;28;20064;-77
2022/11/02 09:04:49;;;;;;;7.75;1.10;;;14.70;99.90;;;;;;4995334;28;20038;-77
2022/11/02 09:07:14;;;;;;;7.55;1.60;;;14.70;99.90;;;;;;4995415;28;20500;-77
2022/11/02 09:09:40;;;;;;;7.13;1.10;;;14.60;99.90;;;;;;4995026;28;20539;-77
2022/11/02 09:12:06;;;;;;;10.60;1.95;;;14.20;99.90;;;;;;4998401;28;20125;-78
2022/11/02 09:14:31;;;;;;;8.10;1.65;;;14.00;99.90;;;;;;4995706;28;20092;-77
2022/11/02 09:16:57;;;;;;;9.27;1.70;;;13.90;99.90;;;;;;5006869;28;20030;-77
2022/11/02 09:19:22;;;;;;;9.43;1.50;;;13.70;1.00;;;;;;5015145;28;20030;-78
2022/11/02 09:21:50;;;;;;;7.05;1.38;;;13.60;1.00;;;;;;5013715;28;20033;-78
2022/11/02 09:24:15;;;;;;;6.43;1.48;;;13.60;1.00;;;;;;5000617;28;20041;-78
2022/11/02 09:26:41;;;;;;;12.50;1.48;;;13.90;1.00;;;;;;4999162;28;20449;-77
2022/11/02 09:29:06;;;;;;;9.25;1.30;;;14.20;99.90;;;;;;5003006;28;20084;-78
2022/11/02 09:31:32;;;;;;;8.98;1.88;;;13.90;1.00;;;;;;4995739;28;20030;-77
2022/11/02 09:33:58;;;;;;;6.07;1.30;;;13.50;1.00;;;;;;4996222;28;20527;-77
2022/11/02 09:36:23;;;;;;;11.80;1.60;;;13.50;1.00;;;;;;5008978;28;20017;-77
2022/11/02 09:38:49;;;;;;;10.02;1.50;;;13.40;1.00;;;;;;5016214;28;20034;-78
2022/11/02 09:41:34;;;;;;;6.00;0.98;;;13.60;1.00;;;;;;4997133;28;20018;-77
2022/11/02 09:44:13;;;;;;;8.45;1.25;;;13.60;1.00;;;;;;4994027;28;20033;-76
2022/11/02 09:46:44;;;;;;;6.68;1.75;;;13.40;1.00;;;;;;4993716;28;20034;-76
2022/11/02 09:49:21;;;;;;;9.90;1.95;;;13.40;1.00;;;;;;4993844;28;20457;-76
2022/11/02 09:51:50;;;;;;;10.32;1.10;;;13.60;1.00;;;;;;5005633;28;20528;-76
2022/11/02 09:54:22;;;;;;;8.13;1.67;;;13.80;1.00;;;;;;5013420;28;20084;-76
2022/11/02 09:56:50;;;;;;;10.43;1.65;;;14.10;1.00;;;;;;5013213;28;20299;-76
2022/11/02 09:59:18;;;;;;;7.72;1.58;;;13.80;1.00;;;;;;5013464;28;20037;-76
2022/11/02 10:01:50;;;;;;;7.53;1.63;;;14.30;1.00;;;;;;5012266;28;20018;-76
2022/11/02 10:04:18;;;;;;;8.15;1.60;;;14.70;99.90;;;;;;5013324;28;20029;-76
2022/11/02 10:06:55;;;;;;;10.70;1.70;;;14.70;99.90;;;;;;5013205;28;20368;-76
2022/11/02 10:09:48;;;;;;;9.20;1.40;;;14.50;99.90;;;;;;5012813;28;20050;-76
2022/11/02 10:12:21;;;;;;;7.50;1.20;;;14.60;99.90;;;;;;4974986;28;20477;-76
2022/11/02 10:15:29;;;;;;;6.78;0.95;;;14.60;99.90;;;;;;5009200;28;20368;-76
2022/11/02 10:17:59;;;;;;;6.60;1.17;;;14.40;99.90;;;;;;4993338;28;20038;-76
2022/11/02 10:20:36;;;;;;;6.68;1.15;;;14.20;99.90;;;;;;4993340;28;20029;-76
2022/11/02 10:23:07;;;;;;;5.40;1.00;;;13.90;99.90;;;;;;4993223;28;20029;-76
2022/11/02 10:25:34;;;;;;;11.25;1.45;;;13.80;99.90;;;;;;4993214;28;20096;-76
2022/11/02 10:28:09;;;;;;;7.75;1.30;;;13.70;99.90;;;;;;4992368;28;20445;-76
2022/11/02 10:30:35;;;;;;;7.32;1.02;;;13.50;99.90;;;;;;4992744;28;20041;-76
2022/11/02 10:33:09;;;;;;;6.38;1.30;;;13.20;99.90;;;;;;4993075;28;20019;-76
2022/11/02 10:35:53;;;;;;;8.30;1.30;;;13.40;99.90;;;;;;4992949;28;20030;-76
2022/11/02 10:38:49;;;;;;;7.03;1.98;;;13.80;99.90;;;;;;4992944;28;20050;-76
2022/11/02 10:41:40;;;;;;;5.07;1.20;;;14.10;99.90;;;;;;4993101;28;20536;-76
2022/11/02 10:44:31;;;;;;;9.75;1.55;;;14.10;99.90;;;;;;4992880;28;20465;-76
2022/11/02 10:47:09;;;;;;;6.70;0.93;;;14.20;99.90;;;;;;4992916;28;20034;-76
2022/11/02 10:49:59;;;;;;;7.05;1.48;;;14.20;99.90;;;;;;4992970;28;20485;-76
2022/11/02 10:52:28;;;;;;;7.85;1.20;;;14.10;99.90;;;;;;4992820;28;20469;-76
2022/11/02 10:54:54;;;;;;;7.47;1.20;;;13.90;99.90;;;;;;4992818;28;20161;-76
2022/11/02 10:57:23;;;;;;;7.15;1.13;;;13.70;99.90;;;;;;4992808;28;20019;-76
2022/11/02 11:00:26;;;;;;;5.22;1.20;;;14.00;99.90;;;;;;4992485;28;20030;-76
2022/11/02 11:03:02;;;;;;;5.80;1.15;;;14.50;99.90;;;;;;4951295;29;20122;-75
2022/11/02 11:05:27;;;;;;;6.10;0.80;;;14.50;99.90;;;;;;4987993;28;20366;-75
2022/11/02 11:07:53;;;;;;;5.15;0.85;;;14.50;99.90;;;;;;4992692;28;20488;-76
2022/11/02 11:10:22;;;;;;;5.63;0.70;;;14.40;99.90;;;;;;4991133;28;20051;-76
2022/11/02 11:12:47;;;;;;;8.23;1.50;;;14.40;99.90;;;;;;4993975;28;20134;-76
2022/11/02 11:15:22;;;;;;;8.55;1.00;;;14.50;99.90;;;;;;4996761;28;20110;-76
2022/11/02 11:17:55;;;;;;;8.65;1.08;;;14.50;99.90;;;;;;4996407;28;20097;-76
2022/11/02 11:20:40;;;;;;;7.30;1.40;;;14.70;99.90;;;;;;4996462;28;20501;-76
2022/11/02 11:23:21;;;;;;;3.30;0.82;;;14.60;99.90;;;;;;4996356;28;20030;-76
2022/11/02 11:25:57;;;;;;;4.78;0.85;;;14.50;99.90;;;;;;4996312;28;20034;-76
2022/11/02 11:28:30;;;;;;;3.90;0.73;;;14.60;99.90;;;;;;4998006;28;20648;-76
2022/11/02 11:31:07;;;;;;;5.53;0.80;;;14.70;99.90;;;;;;5015927;28;20030;-76
2022/11/02 11:33:42;;;;;;;5.15;0.80;;;14.80;99.90;;;;;;5016183;28;20391;-76
2022/11/02 11:36:09;;;;;;;8.30;1.10;;;15.00;99.90;;;;;;5016061;28;20026;-76
2022/11/02 11:38:35;;;;;;;8.77;1.30;;;15.00;99.90;;;;;;5015821;28;20084;-75
2022/11/02 11:41:02;;;;;;;9.43;1.10;;;15.30;99.90;;;;;;5015710;28;20033;-76
2022/11/02 11:43:33;;;;;;;10.45;1.02;;;15.20;99.90;;;;;;5015847;28;20363;-76
2022/11/02 11:46:04;;;;;;;5.95;0.80;;;15.30;99.90;;;;;;5016093;28;20018;-76
2022/11/02 11:48:50;;;;;;;7.97;1.30;;;15.30;99.90;;;;;;5015639;28;20022;-76
2022/11/02 11:51:23;;;;;;;6.25;1.33;;;15.40;99.90;;;;;;5015800;28;20029;-76
2022/11/02 11:54:21;;;;;;;7.90;1.90;;;15.30;99.90;;;;;;5001909;28;20058;-76
2022/11/02 11:56:49;;;;;;;7.50;1.08;;;15.40;99.90;;;;;;5016679;28;20579;-76
2022/11/02 11:59:42;;;;;;;6.78;1.00;;;15.30;99.90;;;;;;5016228;28;20226;-76
2022/11/02 12:02:31;;;;;;;8.18;1.35;;;15.40;99.90;;;;;;5015596;28;20026;-76
2022/11/02 12:05:13;;;;;;;8.75;1.23;;;15.60;99.90;;;;;;5002479;28;20030;-76
2022/11/02 12:07:55;;;;;;;8.90;0.98;;;15.60;99.90;;;;;;4997237;28;20496;-76
2022/11/02 12:11:15;;;;;;;9.65;1.40;;;15.60;99.90;;;;;;4996855;28;20050;-76
2022/11/02 12:13:56;;;;;;;10.68;1.88;;;15.40;99.90;;;;;;4973175;28;20059;-75
2022/11/02 12:16:51;;;;;;;7.60;1.20;;;15.40;99.90;;;;;;5002286;28;20114;-76
2022/11/02 12:19:33;;;;;;;5.53;0.88;;;15.50;99.90;;;;;;4997849;28;20117;-75
2022/11/02 12:22:36;;;;;;;10.40;1.38;;;15.60;99.90;;;;;;5007933;28;20057;-75
2022/11/02 12:25:30;;;;;;;7.18;1.13;;;15.40;99.90;;;;;;5005040;28;20029;-75
2022/11/02 12:28:01;;;;;;;7.22;0.98;;;15.30;99.90;;;;;;5002019;28;20343;-75
2022/11/02 12:31:06;;;;;;;8.35;1.13;;;15.30;99.90;;;;;;5010109;28;20432;-75
2022/11/02 12:33:49;;;;;;;13.07;1.40;;;15.40;99.90;;;;;;4995286;28;20105;-75
2022/11/02 12:36:33;;;;;;;8.85;0.90;;;15.40;99.90;;;;;;4998008;28;20109;-75
2022/11/02 12:39:19;;;;;;;13.43;1.45;;;15.40;99.90;;;;;;5012399;28;20022;-75
2022/11/02 12:41:54;;;;;;;5.78;1.38;;;15.50;99.90;;;;;;5014754;28;20018;-75
2022/11/02 12:44:43;;;;;;;10.75;1.38;;;15.40;99.90;;;;;;5014618;28;20029;-75
2022/11/02 12:47:41;;;;;;;9.67;1.40;;;15.50;99.90;;;;;;5014651;28;20022;-75
2022/11/02 12:50:13;;;;;;;53.13;3.85;;;15.50;99.90;;;;;;5001275;28;20030;-75
2022/11/02 12:52:55;;;;;;;27.55;2.10;;;15.50;99.90;;;;;;4994852;28;20050;-75
2022/11/02 12:55:26;;;;;;;11.73;1.33;;;15.40;99.90;;;;;;5013866;28;20036;-75
2022/11/02 12:58:03;;;;;;;13.50;1.70;;;15.40;99.90;;;;;;5014438;28;20168;-75
2022/11/02 13:00:31;;;;;;;9.10;1.13;;;15.40;99.90;;;;;;5014491;28;20136;-75
2022/11/02 13:03:01;;;;;;;15.65;1.42;;;15.40;99.90;;;;;;5011735;28;20049;-75
2022/11/02 13:05:37;;;;;;;14.50;1.67;;;15.30;99.90;;;;;;4995179;28;20034;-75
2022/11/02 13:08:20;;;;;;;8.93;1.58;;;15.30;99.90;;;;;;5012562;28;20499;-75
2022/11/02 13:10:51;;;;;;;7.05;1.55;;;15.30;99.90;;;;;;5006613;28;20485;-75
2022/11/02 13:13:44;;;;;;;10.77;1.70;;;15.30;99.90;;;;;;4994295;28;20026;-75
2022/11/02 13:16:15;;;;;;;8.75;1.35;;;15.20;99.90;;;;;;4992829;28;20056;-75
2022/11/02 13:18:53;;;;;;;8.07;1.58;;;15.30;99.90;;;;;;4994234;28;20037;-75
2022/11/02 13:21:34;;;;;;;16.13;3.00;;;15.30;99.90;;;;;;4997364;28;20531;-75
2022/11/02 13:24:00;;;;;;;10.15;1.67;;;15.20;99.90;;;;;;5013669;28;20468;-75
2022/11/02 13:26:40;;;;;;;7.68;1.38;;;15.10;99.90;;;;;;5013276;28;20029;-75
2022/11/02 13:29:20;;;;;;;;;;;15.10;99.90;;;;;;5008969;28;20103;-75
2022/11/02 13:31:55;;;;;;;5.55;1.13;;;15.10;99.90;;;;;;4994070;28;20395;-75
2022/11/02 13:34:46;;;;;;;6.68;1.65;;;15.00;99.90;;;;;;5012519;28;20079;-75
2022/11/02 13:37:18;;;;;;;6.22;1.52;;;14.90;99.90;;;;;;5013572;28;20360;-75